Time;durP1;ratioP1;P1;durP2;ratioP2;P2;SDS_P1;SDS_P2;PMS_P1;PMS_P2;Temp;Humidity;BMP_temperature;BMP_pressure;BME280_temperature;BME280_humidity;BME280_pressure;Samples;Min_cycle;Max_cycle;Signal;HPM_P1;HPM_P2
2022/05/05 00:00:53;;;;;;;13.60;7.00;;;5.40;99.90;;;;;;4971879;28;20042;-79
2022/05/05 00:03:19;;;;;;;14.93;7.03;;;5.30;99.90;;;;;;4990668;28;20048;-77
2022/05/05 00:05:45;;;;;;;15.45;7.32;;;5.40;99.90;;;;;;5007171;28;20045;-79
2022/05/05 00:08:11;;;;;;;12.98;7.63;;;5.40;99.90;;;;;;4990398;28;20053;-78
2022/05/05 00:16:09;;;;;;;17.05;7.15;;;5.30;99.90;;;;;;4992255;28;20057;-78
2022/05/05 00:18:36;;;;;;;13.60;7.53;;;5.30;99.90;;;;;;4989361;28;20058;-78
2022/05/05 00:21:01;;;;;;;14.77;7.22;;;5.30;99.90;;;;;;5022524;28;20066;-81
2022/05/05 00:23:27;;;;;;;13.55;6.25;;;5.40;99.90;;;;;;5006728;28;20160;-77
2022/05/05 00:25:53;;;;;;;15.45;6.75;;;5.30;99.90;;;;;;4991178;28;20049;-78
2022/05/05 00:28:19;;;;;;;14.18;6.70;;;5.30;99.90;;;;;;4990469;28;20129;-78
2022/05/05 00:30:44;;;;;;;12.27;6.85;;;5.30;99.90;;;;;;5018944;28;20233;-79
2022/05/05 00:33:10;;;;;;;11.05;6.80;;;5.30;99.90;;;;;;4989877;28;20054;-78
2022/05/05 00:35:36;;;;;;;14.20;7.13;;;5.30;99.90;;;;;;4990969;28;20046;-79
2022/05/05 00:38:03;;;;;;;12.38;7.15;;;5.30;99.90;;;;;;4990657;28;20084;-82
2022/05/05 00:40:29;;;;;;;15.30;7.00;;;5.30;99.90;;;;;;5023439;28;20057;-78
2022/05/05 00:42:57;;;;;;;14.10;7.15;;;5.30;99.90;;;;;;5023455;28;20077;-78
2022/05/05 00:45:22;;;;;;;13.20;7.57;;;5.30;99.90;;;;;;4989597;28;20117;-77
2022/05/05 00:47:48;;;;;;;11.05;7.43;;;5.30;99.90;;;;;;4990777;28;20117;-78
2022/05/05 00:50:16;;;;;;;18.33;7.30;;;5.30;99.90;;;;;;4988642;28;20057;-80
2022/05/05 00:52:42;;;;;;;14.20;6.95;;;5.30;99.90;;;;;;4990778;28;20485;-79
2022/05/05 00:55:08;;;;;;;13.07;7.30;;;5.30;99.90;;;;;;5023147;28;20042;-78
2022/05/05 00:57:35;;;;;;;12.35;6.18;;;5.30;99.90;;;;;;5005329;28;20045;-79
2022/05/05 01:00:02;;;;;;;14.98;6.78;;;5.40;99.90;;;;;;5006347;28;20077;-81
2022/05/05 01:02:27;;;;;;;13.45;6.90;;;5.40;99.90;;;;;;4989926;28;20046;-77
2022/05/05 01:04:54;;;;;;;15.57;7.00;;;5.40;99.90;;;;;;5007177;28;20050;-79
2022/05/05 01:07:21;;;;;;;13.85;6.50;;;5.50;99.90;;;;;;4989385;28;20053;-78
2022/05/05 01:09:49;;;;;;;9.57;6.50;;;5.50;99.90;;;;;;4990710;28;20046;-78
2022/05/05 01:12:15;;;;;;;12.98;6.90;;;5.50;99.90;;;;;;5005554;28;20050;-78
2022/05/05 01:14:41;;;;;;;15.30;7.10;;;5.70;99.90;;;;;;4990871;28;20046;-81
2022/05/05 01:17:07;;;;;;;15.77;7.00;;;5.70;99.90;;;;;;5022099;28;20045;-82
2022/05/05 01:19:35;;;;;;;15.13;8.30;;;5.70;99.90;;;;;;4973489;28;20064;-78
2022/05/05 01:22:00;;;;;;;18.23;8.82;;;5.70;99.90;;;;;;5005742;28;20057;-79
2022/05/05 01:29:57;;;;;;;17.35;7.00;;;5.60;99.90;;;;;;5005468;28;20057;-78
2022/05/05 01:32:29;;;;;;;14.40;7.25;;;5.50;99.90;;;;;;4983595;28;20050;-78
2022/05/05 01:34:54;;;;;;;13.73;6.65;;;5.50;99.90;;;;;;5005598;28;20377;-78
2022/05/05 01:37:20;;;;;;;12.65;7.40;;;5.60;99.90;;;;;;4987047;28;20065;-78
2022/05/05 01:39:46;;;;;;;11.63;7.18;;;5.60;99.90;;;;;;4986775;28;20061;-79
2022/05/05 01:42:11;;;;;;;12.85;7.35;;;5.60;99.90;;;;;;4983767;28;20481;-78
2022/05/05 01:44:37;;;;;;;14.07;6.80;;;5.70;99.90;;;;;;5024190;28;20077;-78
2022/05/05 01:47:03;;;;;;;15.25;6.63;;;5.70;99.90;;;;;;4974839;28;20042;-78
2022/05/05 01:49:28;;;;;;;16.10;7.82;;;5.70;99.90;;;;;;5008539;28;20077;-78
2022/05/05 01:51:54;;;;;;;13.65;7.28;;;5.70;99.90;;;;;;4992715;28;20080;-77
2022/05/05 01:54:20;;;;;;;11.85;7.88;;;5.70;99.90;;;;;;4992075;28;20038;-78
2022/05/05 01:56:46;;;;;;;15.27;7.22;;;5.60;99.90;;;;;;4994324;28;20049;-78
2022/05/05 01:59:12;;;;;;;14.05;6.80;;;5.60;99.90;;;;;;4977404;28;20046;-77
2022/05/05 02:01:37;;;;;;;13.93;7.15;;;5.50;99.90;;;;;;4950623;28;20050;-78
2022/05/05 02:04:03;;;;;;;12.05;7.95;;;5.50;99.90;;;;;;5008040;28;20048;-78
2022/05/05 02:06:29;;;;;;;13.75;6.90;;;5.40;99.90;;;;;;5009398;28;20073;-78
2022/05/05 02:08:57;;;;;;;17.38;7.55;;;5.40;99.90;;;;;;4978074;28;20061;-77
2022/05/05 02:11:22;;;;;;;15.68;6.97;;;5.30;99.90;;;;;;4993929;28;20092;-78
2022/05/05 02:13:49;;;;;;;13.73;7.20;;;5.30;99.90;;;;;;4990555;28;20090;-77
2022/05/05 02:16:14;;;;;;;12.38;7.45;;;5.20;99.90;;;;;;4989520;28;20581;-78
2022/05/05 02:18:40;;;;;;;13.90;7.88;;;5.10;99.90;;;;;;4977431;28;20148;-78
2022/05/05 02:21:06;;;;;;;14.27;7.30;;;5.10;99.90;;;;;;4993799;28;20058;-81
2022/05/05 02:23:31;;;;;;;14.55;7.97;;;5.10;99.90;;;;;;5005543;28;20120;-79
2022/05/05 02:25:57;;;;;;;15.32;8.15;;;5.20;99.90;;;;;;4992279;28;20052;-78
2022/05/05 02:28:23;;;;;;;17.00;8.10;;;5.10;99.90;;;;;;4990552;28;20057;-78
2022/05/05 02:30:48;;;;;;;17.27;8.35;;;5.10;99.90;;;;;;5008865;28;20049;-79
2022/05/05 02:33:14;;;;;;;19.95;8.98;;;5.10;99.90;;;;;;4992389;28;20091;-78
2022/05/05 02:35:40;;;;;;;16.85;9.23;;;5.10;99.90;;;;;;4974899;28;20081;-78
2022/05/05 02:40:50;;;;;;;14.45;9.25;;;5.20;99.90;;;;;;4975546;28;20575;-78
2022/05/05 02:43:15;;;;;;;17.90;8.90;;;5.20;99.90;;;;;;5008103;28;20041;-78
2022/05/05 02:45:41;;;;;;;18.15;9.43;;;5.20;99.90;;;;;;5017584;28;20069;-82
2022/05/05 02:48:07;;;;;;;17.58;9.70;;;5.30;99.90;;;;;;4972945;28;20412;-78
2022/05/05 02:50:33;;;;;;;14.35;9.63;;;5.20;99.90;;;;;;5017942;28;20133;-78
2022/05/05 02:52:58;;;;;;;19.13;9.18;;;5.20;99.90;;;;;;5026623;28;20132;-78
2022/05/05 02:55:24;;;;;;;14.90;9.35;;;5.20;99.90;;;;;;5006127;28;20046;-78
2022/05/05 02:57:51;;;;;;;18.50;9.30;;;5.20;99.90;;;;;;5008478;28;20053;-78
2022/05/05 03:00:17;;;;;;;17.52;9.30;;;5.40;99.90;;;;;;4986688;28;20088;-79
2022/05/05 03:02:43;;;;;;;16.25;9.05;;;5.30;99.90;;;;;;4985201;28;20073;-78
2022/05/05 03:05:10;;;;;;;16.10;8.27;;;5.40;99.90;;;;;;5025451;28;20050;-78
2022/05/05 03:07:37;;;;;;;17.33;10.05;;;5.60;99.90;;;;;;5024325;28;20493;-79
2022/05/05 03:10:03;;;;;;;14.15;8.82;;;5.60;99.90;;;;;;5024817;28;20501;-79
2022/05/05 03:12:29;;;;;;;18.77;8.95;;;5.60;99.90;;;;;;4992296;28;20409;-78
2022/05/05 03:14:55;;;;;;;15.43;8.95;;;5.70;99.90;;;;;;4991795;28;20046;-78
2022/05/05 03:17:20;;;;;;;17.80;8.82;;;5.70;99.90;;;;;;5023712;28;20780;-78
2022/05/05 03:19:46;;;;;;;13.55;8.55;;;5.70;99.90;;;;;;4988274;28;20458;-79
2022/05/05 03:22:12;;;;;;;16.95;9.50;;;5.70;99.90;;;;;;4989914;28;20050;-82
2022/05/05 03:24:38;;;;;;;14.60;9.35;;;5.70;99.90;;;;;;5016833;28;20042;-78
2022/05/05 03:27:04;;;;;;;16.38;9.48;;;5.60;99.90;;;;;;4972350;28;20103;-79
2022/05/05 03:29:32;;;;;;;16.83;9.85;;;5.70;99.90;;;;;;4988995;28;20498;-78
2022/05/05 03:31:58;;;;;;;14.23;8.95;;;5.70;99.90;;;;;;4992033;28;20088;-78
2022/05/05 03:34:23;;;;;;;15.73;10.77;;;5.70;99.90;;;;;;5006717;28;20088;-78
2022/05/05 03:36:49;;;;;;;21.27;10.65;;;5.70;99.90;;;;;;4974163;28;20065;-77
2022/05/05 03:39:15;;;;;;;19.90;11.23;;;5.70;99.90;;;;;;4991155;28;20111;-82
2022/05/05 03:41:40;;;;;;;18.08;10.52;;;5.60;99.90;;;;;;5023902;28;20732;-78
2022/05/05 03:44:07;;;;;;;17.83;10.88;;;5.60;99.90;;;;;;4975446;28;20049;-79
2022/05/05 03:46:33;;;;;;;18.27;10.43;;;5.60;99.90;;;;;;4990649;28;20288;-79
2022/05/05 03:48:59;;;;;;;14.77;10.13;;;5.60;99.90;;;;;;4975394;28;20077;-78
2022/05/05 03:51:24;;;;;;;16.80;10.18;;;5.70;99.90;;;;;;4990117;28;20533;-77
2022/05/05 03:53:51;;;;;;;16.88;10.75;;;5.70;99.90;;;;;;4990824;28;20037;-77
2022/05/05 03:56:16;;;;;;;18.25;10.27;;;5.70;99.90;;;;;;5023538;28;20128;-79
2022/05/05 03:58:42;;;;;;;20.10;11.15;;;5.70;99.90;;;;;;4990385;28;20438;-79
2022/05/05 04:01:08;;;;;;;17.10;10.98;;;5.70;99.90;;;;;;5005966;28;20077;-78
2022/05/05 04:03:34;;;;;;;18.55;11.10;;;5.80;99.90;;;;;;5006908;28;20046;-77
2022/05/05 04:06:02;;;;;;;17.95;10.90;;;5.80;99.90;;;;;;4965906;28;20137;-77
2022/05/05 04:08:28;;;;;;;17.27;10.10;;;5.80;99.90;;;;;;4986785;28;20103;-77
2022/05/05 04:10:54;;;;;;;15.38;10.48;;;5.90;99.90;;;;;;4989928;28;20045;-77
2022/05/05 04:13:20;;;;;;;17.73;10.73;;;5.90;99.90;;;;;;4987281;28;20042;-77
2022/05/05 04:15:46;;;;;;;17.20;10.63;;;6.00;99.90;;;;;;5006994;28;20057;-77
2022/05/05 04:18:12;;;;;;;24.02;11.02;;;6.00;99.90;;;;;;5023020;28;20160;-77
2022/05/05 04:20:39;;;;;;;17.98;11.32;;;6.10;99.90;;;;;;4990849;28;20152;-77
2022/05/05 04:23:05;;;;;;;17.52;10.25;;;6.20;99.90;;;;;;4991193;28;20509;-77
2022/05/05 04:25:33;;;;;;;19.17;10.60;;;6.20;99.90;;;;;;4990687;28;20136;-76
2022/05/05 04:27:58;;;;;;;18.08;10.82;;;6.20;99.90;;;;;;4991166;28;20049;-77
2022/05/05 04:30:24;;;;;;;19.27;11.25;;;6.20;99.90;;;;;;5022049;28;20377;-77
2022/05/05 04:32:51;;;;;;;17.63;9.85;;;6.20;99.90;;;;;;5024651;28;20164;-77
2022/05/05 04:35:17;;;;;;;16.13;9.65;;;6.30;99.90;;;;;;5024317;28;20054;-79
2022/05/05 04:37:43;;;;;;;17.50;10.50;;;6.40;99.90;;;;;;4990880;28;20061;-77
2022/05/05 04:40:10;;;;;;;18.35;10.63;;;6.40;99.90;;;;;;5023085;28;20053;-78
2022/05/05 04:42:37;;;;;;;14.43;10.05;;;6.50;99.90;;;;;;5023051;28;20056;-78
2022/05/05 04:45:04;;;;;;;16.15;10.40;;;6.50;99.90;;;;;;5004602;28;20060;-77
2022/05/05 04:47:29;;;;;;;18.08;11.35;;;6.50;99.90;;;;;;5020729;28;20065;-79
2022/05/05 04:49:56;;;;;;;21.95;11.95;;;6.60;99.90;;;;;;4988875;28;20057;-77
2022/05/05 04:52:26;;;;;;;19.83;11.25;;;6.60;99.90;;;;;;4983126;28;20415;-76
2022/05/05 04:54:52;;;;;;;17.88;11.30;;;6.60;99.90;;;;;;4986307;28;20042;-77
2022/05/05 04:57:18;;;;;;;17.17;11.00;;;6.60;99.90;;;;;;5023880;28;20297;-80
2022/05/05 04:59:44;;;;;;;17.02;11.02;;;6.70;99.90;;;;;;5022380;28;20054;-76
2022/05/05 05:02:10;;;;;;;20.63;11.20;;;6.70;99.90;;;;;;5021632;28;20077;-76
2022/05/05 05:04:36;;;;;;;18.63;10.43;;;6.70;99.90;;;;;;4990145;28;20139;-76
2022/05/05 05:07:01;;;;;;;21.42;10.20;;;6.80;99.90;;;;;;5021975;28;20046;-78
2022/05/05 05:09:27;;;;;;;17.42;11.35;;;6.90;99.90;;;;;;5023569;28;20050;-76
2022/05/05 05:11:53;;;;;;;15.35;10.32;;;7.00;99.90;;;;;;5024515;28;20041;-76
2022/05/05 05:14:18;;;;;;;17.45;10.88;;;7.10;99.90;;;;;;5024445;28;20049;-78
2022/05/05 05:16:44;;;;;;;17.05;11.32;;;7.10;99.90;;;;;;5024151;28;20041;-76
2022/05/05 05:19:10;;;;;;;15.23;10.13;;;7.20;99.90;;;;;;5025480;28;20041;-76
2022/05/05 05:21:35;;;;;;;16.95;11.05;;;7.30;99.90;;;;;;5027606;28;20054;-76
2022/05/05 05:24:02;;;;;;;16.65;10.93;;;7.40;99.90;;;;;;4995030;28;20576;-78
2022/05/05 05:26:28;;;;;;;22.13;11.90;;;7.50;99.90;;;;;;4995134;28;20053;-77
2022/05/05 05:28:54;;;;;;;18.50;10.82;;;7.50;99.90;;;;;;4976547;28;20042;-77
2022/05/05 05:31:21;;;;;;;19.23;10.30;;;7.70;99.90;;;;;;4993437;28;20049;-77
2022/05/05 05:33:48;;;;;;;15.85;10.80;;;7.80;99.90;;;;;;5026612;28;20046;-78
2022/05/05 05:36:14;;;;;;;21.60;11.60;;;7.80;99.90;;;;;;4991293;28;20041;-77
2022/05/05 05:38:40;;;;;;;16.67;10.57;;;7.90;99.90;;;;;;5010936;28;20053;-77
2022/05/05 05:41:06;;;;;;;20.23;11.20;;;8.00;99.90;;;;;;5026247;28;20041;-77
2022/05/05 05:43:31;;;;;;;17.25;10.05;;;8.00;99.90;;;;;;4992484;28;20489;-78
2022/05/05 05:45:57;;;;;;;14.27;10.38;;;8.20;99.90;;;;;;4978699;28;20046;-77
2022/05/05 05:48:23;;;;;;;20.05;10.50;;;8.30;99.90;;;;;;4991196;28;20420;-80
2022/05/05 05:50:48;;;;;;;19.20;10.38;;;8.40;99.90;;;;;;4993569;28;20112;-77
2022/05/05 05:53:14;;;;;;;20.08;10.43;;;8.50;99.90;;;;;;5023720;28;20049;-77
2022/05/05 05:55:40;;;;;;;20.83;10.75;;;8.70;99.90;;;;;;5001893;28;20038;-78
2022/05/05 05:58:05;;;;;;;13.43;9.95;;;8.80;99.90;;;;;;4994784;28;20050;-77
2022/05/05 06:00:32;;;;;;;18.88;10.27;;;9.00;99.90;;;;;;4994244;28;20473;-79
2022/05/05 06:05:42;;;;;;;15.27;10.07;;;9.30;99.90;;;;;;5009855;28;20119;-81
2022/05/05 06:08:08;;;;;;;15.15;9.65;;;9.60;99.90;;;;;;5027469;28;20053;-77
2022/05/05 06:10:36;;;;;;;16.33;9.85;;;9.70;99.90;;;;;;4974482;28;20138;-78
2022/05/05 06:13:02;;;;;;;18.90;10.40;;;9.80;99.90;;;;;;4992718;28;20054;-79
2022/05/05 06:15:28;;;;;;;18.75;10.50;;;10.00;99.90;;;;;;4993571;28;20049;-77
2022/05/05 06:17:54;;;;;;;18.80;9.85;;;10.10;99.90;;;;;;4993791;28;20558;-77
2022/05/05 06:20:20;;;;;;;13.13;9.70;;;10.20;99.90;;;;;;5026641;28;20045;-77
2022/05/05 06:22:46;;;;;;;16.05;8.77;;;10.40;99.90;;;;;;4977142;28;20049;-77
2022/05/05 06:25:12;;;;;;;16.52;9.05;;;10.50;99.90;;;;;;5010740;28;20077;-78
2022/05/05 06:27:39;;;;;;;17.55;9.18;;;10.60;99.90;;;;;;4977698;28;20058;-78
2022/05/05 06:30:06;;;;;;;20.92;10.40;;;10.70;99.90;;;;;;4993207;28;20495;-77
2022/05/05 06:32:32;;;;;;;19.25;9.07;;;10.80;99.90;;;;;;4993407;28;20442;-77
2022/05/05 06:34:58;;;;;;;16.85;8.45;;;10.90;99.90;;;;;;5027184;28;20095;-78
2022/05/05 06:37:24;;;;;;;19.95;8.98;;;11.10;99.90;;;;;;5027039;28;20052;-77
2022/05/05 06:39:51;;;;;;;14.52;8.65;;;11.30;99.90;;;;;;4978007;28;20053;-77
2022/05/05 06:42:17;;;;;;;14.77;9.45;;;11.40;99.90;;;;;;4994259;28;20046;-77
2022/05/05 06:44:42;;;;;;;12.88;8.20;;;11.50;99.90;;;;;;4993653;28;20475;-80
2022/05/05 06:47:08;;;;;;;21.38;9.15;;;11.70;99.90;;;;;;4978014;28;20141;-77
2022/05/05 06:49:35;;;;;;;15.45;8.43;;;11.80;99.90;;;;;;5026136;28;20493;-78
2022/05/05 06:52:01;;;;;;;14.73;8.90;;;11.80;99.90;;;;;;5010059;28;20065;-78
2022/05/05 06:54:27;;;;;;;14.68;8.35;;;12.00;99.90;;;;;;5025945;28;20061;-81
2022/05/05 06:56:54;;;;;;;15.60;8.88;;;12.10;99.90;;;;;;5025855;28;20092;-77
2022/05/05 06:59:20;;;;;;;17.20;8.18;;;12.20;99.90;;;;;;5025860;28;20497;-76
2022/05/05 07:01:52;;;;;;;11.48;8.13;;;12.20;99.90;;;;;;5025776;28;20188;-78
2022/05/05 07:07:07;;;;;;;13.55;8.32;;;12.60;99.90;;;;;;5010045;28;20073;-80
2022/05/05 07:12:18;;;;;;;15.93;8.15;;;13.00;99.90;;;;;;5008954;28;20460;-77
2022/05/05 07:14:44;;;;;;;16.05;7.97;;;13.20;99.90;;;;;;4992945;28;20124;-78
2022/05/05 07:17:10;;;;;;;14.23;7.47;;;13.40;99.90;;;;;;5026323;28;20138;-78
2022/05/05 07:19:37;;;;;;;12.38;8.02;;;13.50;99.80;;;;;;5008983;28;20390;-78
2022/05/05 07:22:03;;;;;;;13.52;7.47;;;13.70;98.50;;;;;;5026269;28;20591;-80
2022/05/05 07:24:32;;;;;;;18.30;7.30;;;13.90;96.60;;;;;;4993416;28;20136;-84
2022/05/05 07:26:58;;;;;;;10.77;7.13;;;14.00;95.50;;;;;;4993683;28;20484;-78
2022/05/05 07:29:24;;;;;;;13.90;7.38;;;14.10;94.70;;;;;;4985778;28;20078;-78
2022/05/05 07:31:50;;;;;;;17.10;8.25;;;14.30;93.50;;;;;;4992768;28;20432;-78
2022/05/05 07:34:16;;;;;;;15.13;7.40;;;14.50;92.50;;;;;;5002485;28;20906;-79
2022/05/05 07:36:42;;;;;;;13.40;7.00;;;14.60;91.40;;;;;;4990623;28;20062;-78
2022/05/05 07:39:08;;;;;;;16.17;7.05;;;14.80;89.70;;;;;;5008416;28;20049;-78
2022/05/05 07:41:34;;;;;;;16.15;6.90;;;14.90;87.10;;;;;;5022778;28;20050;-78
2022/05/05 07:44:04;;;;;;;9.00;5.50;;;15.00;87.10;;;;;;4968806;28;20091;-78
2022/05/05 07:46:30;;;;;;;21.05;6.22;;;15.10;84.10;;;;;;4989340;28;20062;-83
2022/05/05 07:48:56;;;;;;;12.13;5.22;;;15.30;82.40;;;;;;5022415;28;20058;-78
2022/05/05 07:51:22;;;;;;;11.45;5.55;;;15.50;80.90;;;;;;4999074;28;20046;-78
2022/05/05 07:54:34;;;;;;;17.42;6.63;;;15.70;78.80;;;;;;5003267;28;20551;-78
2022/05/05 07:56:33;;;;;;;15.25;5.55;;;15.90;76.90;;;;;;4986744;28;20076;-81
2022/05/05 07:58:59;;;;;;;11.60;5.47;;;16.00;76.10;;;;;;5001332;28;20050;-82
2022/05/05 08:01:24;;;;;;;10.43;5.13;;;16.00;72.70;;;;;;4996941;28;20535;-78
2022/05/05 08:03:50;;;;;;;8.30;4.05;;;16.10;71.50;;;;;;4965207;28;20540;-77
2022/05/05 08:06:16;;;;;;;10.38;4.00;;;16.10;69.00;;;;;;5004912;28;20056;-80
2022/05/05 08:08:41;;;;;;;13.60;4.53;;;16.30;66.90;;;;;;4976103;28;20493;-78
2022/05/05 08:11:07;;;;;;;10.18;4.22;;;16.50;65.20;;;;;;5008984;28;20061;-78
2022/05/05 08:13:33;;;;;;;11.30;4.80;;;16.50;64.90;;;;;;5008788;28;20077;-83
2022/05/05 08:15:59;;;;;;;13.13;4.95;;;16.70;64.80;;;;;;5009085;28;20049;-80
2022/05/05 08:18:25;;;;;;;9.15;4.68;;;16.70;63.50;;;;;;5008344;28;20496;-77
2022/05/05 08:20:51;;;;;;;10.55;4.38;;;16.60;63.20;;;;;;4991289;28;20056;-78
2022/05/05 08:23:18;;;;;;;11.88;4.40;;;16.60;62.40;;;;;;5025180;28;20107;-78
2022/05/05 08:28:28;;;;;;;9.63;3.60;;;16.50;61.50;;;;;;5008335;28;20403;-77
2022/05/05 08:30:54;;;;;;;6.70;3.60;;;16.70;60.60;;;;;;4990855;28;20655;-78
2022/05/05 08:33:20;;;;;;;9.52;4.30;;;16.90;60.10;;;;;;5009530;28;20038;-78
2022/05/05 08:35:45;;;;;;;6.30;4.10;;;17.00;57.80;;;;;;4974798;28;20064;-78
2022/05/05 08:38:13;;;;;;;7.38;4.18;;;17.00;57.50;;;;;;4991669;28;20073;-80
2022/05/05 08:40:40;;;;;;;10.18;3.67;;;17.20;58.30;;;;;;4967031;28;20120;-78
2022/05/05 08:43:07;;;;;;;12.55;4.13;;;17.50;57.90;;;;;;5007197;28;20053;-79
2022/05/05 08:45:33;;;;;;;13.95;4.18;;;17.90;56.30;;;;;;5009551;28;20043;-78
2022/05/05 08:48:02;;;;;;;8.73;4.00;;;18.10;55.00;;;;;;4989016;28;20409;-80
2022/05/05 08:50:31;;;;;;;8.10;3.90;;;18.30;54.30;;;;;;4991760;28;20049;-80
2022/05/05 08:52:57;;;;;;;9.57;4.30;;;18.40;53.70;;;;;;4991737;28;20253;-79
2022/05/05 08:55:22;;;;;;;10.40;3.85;;;18.50;52.70;;;;;;5028455;28;20571;-79
2022/05/05 08:57:48;;;;;;;7.10;3.40;;;18.50;53.00;;;;;;5011433;28;20041;-79
2022/05/05 09:00:15;;;;;;;92.70;7.15;;;18.60;52.20;;;;;;4995574;28;20512;-78
2022/05/05 09:02:44;;;;;;;7.43;3.38;;;18.80;52.00;;;;;;4995372;28;20085;-80
2022/05/05 09:05:10;;;;;;;6.25;4.00;;;18.90;51.20;;;;;;4995158;28;20497;-79
2022/05/05 09:07:52;;;;;;;11.57;3.80;;;19.10;51.10;;;;;;4992194;28;20575;-81
2022/05/05 09:10:20;;;;;;;7.95;3.50;;;19.30;50.90;;;;;;4990186;28;20069;-78
2022/05/05 09:12:59;;;;;;;6.63;3.60;;;19.50;51.00;;;;;;4995295;28;20069;-79
2022/05/05 09:15:33;;;;;;;20.25;3.60;;;19.60;51.00;;;;;;5011362;28;20050;-80
2022/05/05 09:18:12;;;;;;;5.32;3.10;;;19.70;50.90;;;;;;4990170;28;20231;-80
2022/05/05 09:20:38;;;;;;;7.38;3.67;;;19.90;50.90;;;;;;4989379;28;20050;-82
2022/05/05 09:23:04;;;;;;;6.95;3.35;;;20.10;50.30;;;;;;5027732;28;20489;-79
2022/05/05 09:25:49;;;;;;;8.77;3.80;;;20.40;48.90;;;;;;5028148;28;20143;-78
2022/05/05 09:28:31;;;;;;;7.05;4.10;;;20.80;48.80;;;;;;5012207;28;20042;-78
2022/05/05 09:31:04;;;;;;;6.18;3.92;;;21.20;47.20;;;;;;5010851;28;20046;-79
2022/05/05 09:33:33;;;;;;;10.02;3.70;;;21.50;46.30;;;;;;5028152;28;20088;-79
2022/05/05 09:36:04;;;;;;;6.82;3.95;;;21.60;46.20;;;;;;5010940;28;20672;-80
2022/05/05 09:38:50;;;;;;;8.88;3.90;;;21.80;45.20;;;;;;5010952;28;20061;-79
2022/05/05 09:41:23;;;;;;;;;;;21.80;44.20;;;;;;5027719;28;20133;-78
2022/05/05 09:43:49;;;;;;;6.35;3.80;;;21.80;43.60;;;;;;4992988;28;20384;-81
2022/05/05 09:46:25;;;;;;;5.78;3.72;;;21.50;45.60;;;;;;4994227;28;20133;-78
2022/05/05 09:49:04;;;;;;;;;;;21.60;44.50;;;;;;5026331;28;20057;-80
2022/05/05 09:51:30;;;;;;;8.68;4.20;;;21.60;44.60;;;;;;5016201;28;19968;-78
2022/05/05 09:59:40;;;;;;;9.38;4.55;;;22.00;43.10;;;;;;5011214;28;20056;-80
2022/05/05 10:02:15;;;;;;;9.30;4.95;;;22.50;42.80;;;;;;5011037;28;20053;-79
2022/05/05 10:04:48;;;;;;;8.40;4.72;;;22.80;41.70;;;;;;5027470;28;20045;-82
2022/05/05 10:07:18;;;;;;;7.03;4.53;;;22.90;41.60;;;;;;5007665;28;20042;-79
2022/05/05 10:09:47;;;;;;;11.60;4.80;;;23.00;41.80;;;;;;4991203;28;20140;-80
2022/05/05 10:12:14;;;;;;;7.93;5.05;;;23.40;41.70;;;;;;4991725;28;20563;-79
2022/05/05 10:14:41;;;;;;;10.20;4.75;;;23.70;40.40;;;;;;4975399;28;20120;-80
2022/05/05 10:17:08;;;;;;;5.53;4.18;;;23.80;40.00;;;;;;4991307;28;20054;-79
2022/05/05 10:19:34;;;;;;;9.27;4.53;;;23.90;39.70;;;;;;4974982;28;20054;-79
2022/05/05 10:22:04;;;;;;;10.85;4.25;;;24.50;39.20;;;;;;4990993;28;20065;-81
2022/05/05 10:24:32;;;;;;;8.32;4.95;;;24.90;39.00;;;;;;4975371;28;20058;-79
2022/05/05 10:27:00;;;;;;;9.77;4.03;;;25.00;38.00;;;;;;4990904;28;20050;-79
2022/05/05 10:29:32;;;;;;;8.55;4.53;;;25.00;37.80;;;;;;4991336;28;20109;-78
2022/05/05 10:32:20;;;;;;;8.60;3.85;;;25.00;37.90;;;;;;4990992;28;20050;-79
2022/05/05 10:34:53;;;;;;;6.63;4.43;;;25.10;37.40;;;;;;5023571;28;20134;-79
2022/05/05 10:37:30;;;;;;;11.52;4.53;;;25.30;37.50;;;;;;5010243;28;20049;-79
2022/05/05 10:39:59;;;;;;;7.45;4.20;;;25.30;37.40;;;;;;5010337;28;20131;-79
2022/05/05 10:42:27;;;;;;;6.40;3.95;;;25.40;36.10;;;;;;5010326;28;20042;-79
2022/05/05 10:45:29;;;;;;;6.95;4.20;;;25.20;36.40;;;;;;5010124;28;20050;-80
2022/05/05 10:48:06;;;;;;;6.63;3.78;;;25.00;35.20;;;;;;5010208;28;20140;-79
2022/05/05 10:51:02;;;;;;;5.68;4.18;;;24.70;36.30;;;;;;5010680;28;20057;-80
2022/05/05 10:53:43;;;;;;;14.30;4.22;;;24.60;37.20;;;;;;5010474;28;20088;-80
2022/05/05 10:56:32;;;;;;;5.80;4.10;;;24.80;36.10;;;;;;5026467;28;20125;-80
2022/05/05 10:59:05;;;;;;;5.38;3.83;;;25.10;35.70;;;;;;5009915;28;20060;-79
2022/05/05 11:01:46;;;;;;;5.05;3.63;;;25.20;35.00;;;;;;5010228;28;20045;-79
2022/05/05 11:04:12;;;;;;;5.50;3.58;;;25.50;34.60;;;;;;5010346;28;20539;-79
2022/05/05 11:06:38;;;;;;;7.30;4.47;;;25.50;34.20;;;;;;5010171;28;20046;-79
2022/05/05 11:09:05;;;;;;;8.65;3.53;;;25.50;34.00;;;;;;5009528;28;20608;-80
2022/05/05 11:11:41;;;;;;;6.40;3.55;;;25.50;34.50;;;;;;5009959;28;20823;-79
2022/05/05 11:21:32;;;;;;;;;;;25.90;34.10;;;;;;4980041;28;20046;-80
2022/05/05 11:22:44;;;;;;;8.18;3.40;;;25.50;32.20;;;;;;5009753;28;20049;-79
2022/05/05 11:25:10;;;;;;;4.15;3.00;;;25.50;32.10;;;;;;5009248;28;20076;-79
2022/05/05 11:27:36;;;;;;;7.32;3.85;;;25.70;32.50;;;;;;5009863;28;20088;-79
2022/05/05 11:30:02;;;;;;;7.80;4.55;;;26.00;32.50;;;;;;5009077;28;20081;-79
2022/05/05 11:32:30;;;;;;;7.15;4.25;;;25.50;32.20;;;;;;5009581;28;20464;-78
2022/05/05 11:34:56;;;;;;;4.93;3.53;;;24.70;33.10;;;;;;5010401;28;20060;-78
2022/05/05 11:37:26;;;;;;;5.90;3.40;;;24.20;34.70;;;;;;5009368;28;20050;-79
2022/05/05 11:39:52;;;;;;;6.00;3.25;;;23.90;35.30;;;;;;5008975;28;20061;-79
2022/05/05 11:42:18;;;;;;;7.57;3.45;;;24.10;35.70;;;;;;5009362;28;20403;-79
2022/05/05 11:44:46;;;;;;;8.50;4.28;;;24.60;35.40;;;;;;5009270;28;20445;-79
2022/05/05 11:47:18;;;;;;;7.18;3.83;;;24.40;34.70;;;;;;4992601;28;20041;-79
2022/05/05 11:49:52;;;;;;;6.50;3.47;;;24.70;34.60;;;;;;5009212;28;20049;-79
2022/05/05 11:52:22;;;;;;;5.95;3.20;;;25.60;34.00;;;;;;5009236;28;20530;-78
2022/05/05 11:54:56;;;;;;;5.43;3.63;;;26.40;32.70;;;;;;5008434;28;20081;-81
2022/05/05 11:57:39;;;;;;;7.30;4.00;;;27.10;31.80;;;;;;5008957;28;20132;-80
2022/05/05 12:02:51;;;;;;;5.82;3.90;;;28.60;30.00;;;;;;4994845;28;20049;-80
2022/05/05 12:05:18;;;;;;;8.05;3.78;;;28.90;29.30;;;;;;4973439;28;20050;-80
2022/05/05 12:07:46;;;;;;;6.25;4.25;;;29.70;29.50;;;;;;4989293;28;20054;-81
2022/05/05 12:10:14;;;;;;;7.35;4.35;;;30.30;27.70;;;;;;4988741;28;20093;-80
2022/05/05 12:12:44;;;;;;;7.70;3.72;;;30.30;27.90;;;;;;4957261;28;20046;-78
2022/05/05 12:15:11;;;;;;;8.70;4.20;;;30.20;26.40;;;;;;4988898;28;20485;-78
2022/05/05 12:17:46;;;;;;;9.65;5.28;;;29.40;27.40;;;;;;4973406;28;20050;-78
2022/05/05 12:20:15;;;;;;;7.80;4.65;;;29.20;27.70;;;;;;4972150;28;20068;-79
2022/05/05 12:22:43;;;;;;;8.32;4.90;;;29.50;27.90;;;;;;4989133;28;20465;-80
2022/05/05 12:25:16;;;;;;;7.05;4.75;;;29.90;27.30;;;;;;4988704;28;20054;-78
2022/05/05 12:27:42;;;;;;;8.10;4.25;;;29.80;26.80;;;;;;4972900;28;20426;-80
2022/05/05 12:30:09;;;;;;;7.90;4.97;;;29.30;27.30;;;;;;4988047;28;20133;-80
2022/05/05 12:32:35;;;;;;;7.40;4.72;;;29.20;27.90;;;;;;5024252;28;20046;-80
2022/05/05 12:35:04;;;;;;;7.35;4.80;;;29.20;27.80;;;;;;5023290;28;20053;-83
2022/05/05 12:37:30;;;;;;;4.50;4.05;;;29.20;27.10;;;;;;5024259;28;20515;-79
2022/05/05 12:40:01;;;;;;;6.07;4.90;;;28.80;27.20;;;;;;5023960;28;20057;-78
2022/05/05 12:42:48;;;;;;;6.95;4.50;;;28.30;27.20;;;;;;4986793;28;20050;-79
2022/05/05 12:45:29;;;;;;;9.35;4.82;;;27.60;27.80;;;;;;5009096;28;20093;-79
2022/05/05 12:47:58;;;;;;;7.53;4.68;;;27.10;28.70;;;;;;4982274;28;20050;-79
2022/05/05 12:50:38;;;;;;;6.65;4.50;;;26.80;29.20;;;;;;5006381;28;20058;-79
2022/05/05 13:01:30;;;;;;;6.07;3.78;;;26.40;29.60;;;;;;5006481;28;20724;-79
2022/05/05 13:04:05;;;;;;;4.55;3.90;;;26.20;29.90;;;;;;5006678;28;20050;-79
2022/05/05 13:06:31;;;;;;;6.78;3.92;;;25.80;29.70;;;;;;5005126;28;20049;-78
2022/05/05 13:08:58;;;;;;;8.30;3.90;;;25.40;30.00;;;;;;4957540;28;20054;-78
2022/05/05 13:11:24;;;;;;;7.40;3.85;;;25.30;30.30;;;;;;4987911;28;20074;-79
2022/05/05 13:13:51;;;;;;;5.55;4.40;;;25.40;30.60;;;;;;4970148;28;20046;-79
2022/05/05 13:16:17;;;;;;;6.13;4.32;;;25.50;31.00;;;;;;5001779;28;20086;-80
2022/05/05 13:18:43;;;;;;;5.25;3.97;;;25.70;31.00;;;;;;5003723;28;20053;-79
2022/05/05 13:21:09;;;;;;;5.28;4.50;;;25.90;30.80;;;;;;5006208;28;20057;-80
2022/05/05 13:23:36;;;;;;;5.10;4.57;;;25.80;30.70;;;;;;5020196;28;20042;-78
2022/05/05 13:26:03;;;;;;;5.22;4.53;;;25.90;31.00;;;;;;5020207;28;20578;-82
2022/05/05 13:28:31;;;;;;;6.63;4.47;;;26.40;30.80;;;;;;5006942;28;20060;-79
2022/05/05 13:30:57;;;;;;;6.38;4.28;;;27.40;29.80;;;;;;5004116;28;20065;-79
2022/05/05 13:33:23;;;;;;;9.27;4.03;;;28.70;28.70;;;;;;5013758;28;20053;-79